createdAt,value
2022-10-05T00:00:49.968Z,8.90
2022-10-05T00:03:17.132Z,11.73
2022-10-05T00:05:46.648Z,10.57
2022-10-05T00:08:20.326Z,7.90
2022-10-05T00:10:49.043Z,10.17
2022-10-05T00:13:24.968Z,6.67
2022-10-05T00:16:19.471Z,6.67
2022-10-05T00:18:52.547Z,6.50
2022-10-05T00:21:26.714Z,6.97
2022-10-05T00:23:58.168Z,6.30
2022-10-05T00:26:28.658Z,6.17
2022-10-05T00:28:55.630Z,6.80
2022-10-05T00:31:26.779Z,6.33
2022-10-05T00:33:55.244Z,11.50
2022-10-05T00:36:22.562Z,6.57
2022-10-05T00:38:49.924Z,7.13
2022-10-05T00:41:55.620Z,7.23
2022-10-05T00:44:28.383Z,6.50
2022-10-05T00:47:15.432Z,6.70
2022-10-05T00:51:00.337Z,7.77
2022-10-05T00:53:44.237Z,7.87
2022-10-05T00:56:45.424Z,10.83
2022-10-05T00:59:18.238Z,8.97
2022-10-05T01:02:02.657Z,13.13
2022-10-05T01:04:54.485Z,13.47
2022-10-05T01:07:24.971Z,9.23
2022-10-05T01:10:04.170Z,11.03
2022-10-05T01:12:52.582Z,8.50
2022-10-05T01:15:46.002Z,10.93
2022-10-05T01:18:30.091Z,11.20
2022-10-05T01:21:21.054Z,11.63
2022-10-05T01:23:47.965Z,10.00
2022-10-05T01:27:02.637Z,11.07
2022-10-05T01:29:53.451Z,9.53
2022-10-05T01:33:19.212Z,10.57
2022-10-05T01:35:59.902Z,8.87
2022-10-05T01:38:42.922Z,10.67
2022-10-05T01:42:16.323Z,9.83
2022-10-05T01:44:43.218Z,24.73
2022-10-05T01:47:30.094Z,9.13
2022-10-05T01:50:08.007Z,9.63
2022-10-05T01:53:08.651Z,11.07
2022-10-05T01:55:48.332Z,9.47
2022-10-05T01:58:33.288Z,7.57
2022-10-05T02:01:09.405Z,8.40
2022-10-05T02:03:46.114Z,9.13
2022-10-05T02:06:20.157Z,7.53
2022-10-05T02:09:05.018Z,10.13
2022-10-05T02:11:34.559Z,7.10
2022-10-05T02:14:13.380Z,8.10
2022-10-05T02:16:46.218Z,6.43
2022-10-05T02:19:39.863Z,7.20
2022-10-05T02:22:47.887Z,6.87
2022-10-05T02:25:27.165Z,7.90
2022-10-05T02:28:11.279Z,6.97
2022-10-05T02:30:52.184Z,7.63
2022-10-05T02:33:34.945Z,8.70
2022-10-05T02:36:32.627Z,7.30
2022-10-05T02:39:52.897Z,9.03
2022-10-05T02:42:56.336Z,7.53
2022-10-05T02:45:56.737Z,9.03
2022-10-05T02:48:54.456Z,6.33
2022-10-05T02:51:29.298Z,6.77
2022-10-05T02:54:14.528Z,7.43
2022-10-05T02:56:56.168Z,7.00
2022-10-05T03:00:14.288Z,6.43
2022-10-05T03:03:01.903Z,8.17
2022-10-05T03:05:38.225Z,7.00
2022-10-05T03:08:27.065Z,6.50
2022-10-05T03:11:08.463Z,6.33
2022-10-05T03:13:56.646Z,6.77
2022-10-05T03:17:08.723Z,6.20
2022-10-05T03:20:02.107Z,7.50
2022-10-05T03:22:49.498Z,7.33
2022-10-05T03:25:41.263Z,7.67
2022-10-05T03:28:55.742Z,7.57
2022-10-05T03:31:43.516Z,11.80
2022-10-05T03:34:34.923Z,9.57
2022-10-05T03:37:45.317Z,9.60
2022-10-05T03:40:39.745Z,8.97
2022-10-05T03:43:17.104Z,9.77
2022-10-05T03:46:19.336Z,9.50
2022-10-05T03:49:15.053Z,8.83
2022-10-05T03:52:23.318Z,12.20
2022-10-05T03:55:47.368Z,8.37
2022-10-05T03:58:26.740Z,7.67
2022-10-05T04:01:01.167Z,8.60
2022-10-05T04:03:36.679Z,12.40
2022-10-05T04:06:16.742Z,10.47
2022-10-05T04:09:23.196Z,11.40
2022-10-05T04:12:11.573Z,14.30
2022-10-05T04:14:48.786Z,10.87
2022-10-05T04:17:49.342Z,10.50
2022-10-05T04:20:41.357Z,7.47
2022-10-05T04:23:11.370Z,10.40
2022-10-05T04:25:54.485Z,9.50
2022-10-05T04:29:17.288Z,10.60
2022-10-05T04:32:24.797Z,8.83
2022-10-05T04:35:23.758Z,9.67
2022-10-05T04:38:02.343Z,10.03
2022-10-05T04:40:50.713Z,10.33
2022-10-05T04:44:00.431Z,9.07
2022-10-05T04:46:54.447Z,10.27
2022-10-05T04:50:04.622Z,20.47
2022-10-05T04:53:23.421Z,12.00
2022-10-05T04:56:16.653Z,18.80
2022-10-05T04:59:03.231Z,18.93
2022-10-05T05:02:04.758Z,14.00
2022-10-05T05:04:47.168Z,19.20
2022-10-05T05:07:34.407Z,19.23
2022-10-05T05:10:07.757Z,17.37
2022-10-05T05:13:16.629Z,18.77
2022-10-05T05:15:58.219Z,19.03
2022-10-05T05:19:06.898Z,12.20
2022-10-05T05:22:01.991Z,19.63
2022-10-05T05:24:53.572Z,17.23
2022-10-05T05:27:43.388Z,17.53
2022-10-05T05:30:41.324Z,28.17
2022-10-05T05:33:42.901Z,26.20
2022-10-05T05:36:24.802Z,16.40
2022-10-05T05:39:22.899Z,23.30
2022-10-05T05:42:00.813Z,19.30
2022-10-05T05:44:42.397Z,20.03
2022-10-05T05:47:35.405Z,19.47
2022-10-05T05:50:48.695Z,25.27
2022-10-05T05:53:38.878Z,26.43
2022-10-05T05:56:15.518Z,15.77
2022-10-05T05:59:03.843Z,18.63
2022-10-05T06:01:43.437Z,18.83
2022-10-05T06:04:24.662Z,15.40
2022-10-05T06:06:54.418Z,22.80
2022-10-05T06:09:46.348Z,20.30
2022-10-05T06:12:21.517Z,22.17
2022-10-05T06:15:27.146Z,33.47
2022-10-05T06:18:00.792Z,33.00
2022-10-05T06:20:53.623Z,52.20
2022-10-05T06:23:59.171Z,26.40
2022-10-05T06:27:09.850Z,28.07
2022-10-05T06:30:16.254Z,31.00
2022-10-05T06:33:20.001Z,33.67
2022-10-05T06:36:05.458Z,28.40
2022-10-05T06:38:47.143Z,37.90
2022-10-05T06:41:24.184Z,20.83
2022-10-05T06:44:17.911Z,26.17
2022-10-05T06:47:12.097Z,23.30
2022-10-05T06:50:13.972Z,23.23
2022-10-05T06:53:12.822Z,28.00
2022-10-05T06:55:48.640Z,34.93
2022-10-05T06:59:04.724Z,34.43
2022-10-05T07:01:51.750Z,39.10
2022-10-05T07:04:41.142Z,19.90
2022-10-05T07:08:04.103Z,34.63
2022-10-05T07:11:00.912Z,24.00
2022-10-05T07:14:13.120Z,27.83
2022-10-05T07:17:17.662Z,25.30
2022-10-05T07:19:55.163Z,43.73
2022-10-05T07:22:37.285Z,30.13
2022-10-05T07:25:28.020Z,25.90
2022-10-05T07:28:09.918Z,35.03
2022-10-05T07:30:57.031Z,19.43
2022-10-05T07:33:44.238Z,18.77
2022-10-05T07:37:30.880Z,24.13
2022-10-05T07:40:16.248Z,26.50
2022-10-05T07:42:53.363Z,19.90
2022-10-05T07:45:34.325Z,15.57
2022-10-05T07:48:43.582Z,30.67
2022-10-05T07:51:26.425Z,18.60
2022-10-05T07:54:13.879Z,18.07
2022-10-05T07:56:50.708Z,47.00
2022-10-05T07:59:44.090Z,22.40
2022-10-05T08:02:28.766Z,15.87
2022-10-05T08:05:33.898Z,15.15
2022-10-05T08:08:03.642Z,18.30
2022-10-05T08:10:52.492Z,14.77
2022-10-05T08:13:55.964Z,15.30
2022-10-05T08:16:28.402Z,15.73
2022-10-05T08:19:23.957Z,16.97
2022-10-05T08:22:01.996Z,17.20
2022-10-05T08:24:57.579Z,14.17
2022-10-05T08:27:44.624Z,15.20
2022-10-05T08:30:14.317Z,14.03
2022-10-05T08:33:08.071Z,15.43
2022-10-05T08:35:43.959Z,14.83
2022-10-05T08:38:19.247Z,13.40
2022-10-05T08:41:42.256Z,14.60
2022-10-05T08:44:43.103Z,15.27
2022-10-05T08:47:36.338Z,14.50
2022-10-05T08:50:18.290Z,16.07
2022-10-05T08:53:41.081Z,16.23
2022-10-05T08:56:42.645Z,17.20
2022-10-05T08:59:51.302Z,14.07
2022-10-05T09:02:52.218Z,15.03
2022-10-05T09:05:58.306Z,13.07
2022-10-05T09:08:55.903Z,15.13
2022-10-05T09:11:37.547Z,11.93
2022-10-05T09:14:27.103Z,12.77
2022-10-05T09:17:09.487Z,14.10
2022-10-05T09:20:30.483Z,19.57
2022-10-05T09:23:06.124Z,20.70
2022-10-05T09:26:13.377Z,13.10
2022-10-05T09:29:02.273Z,12.00
2022-10-05T09:32:13.008Z,13.07
2022-10-05T09:35:00.981Z,10.27
2022-10-05T09:38:08.729Z,11.33
2022-10-05T09:41:06.343Z,11.53
2022-10-05T09:44:07.378Z,9.93
2022-10-05T09:47:22.698Z,9.40
2022-10-05T09:50:30.040Z,9.20
2022-10-05T09:53:24.012Z,9.03
2022-10-05T09:56:05.465Z,9.60
2022-10-05T09:58:55.531Z,8.87
2022-10-05T10:01:51.975Z,8.43
2022-10-05T10:05:05.321Z,17.40
2022-10-05T10:07:35.278Z,10.23
2022-10-05T10:10:48.524Z,13.13
2022-10-05T10:13:53.948Z,8.43
2022-10-05T10:16:50.813Z,10.90
2022-10-05T10:19:48.388Z,11.57
2022-10-05T10:22:43.428Z,7.30
2022-10-05T10:25:41.881Z,11.17
2022-10-05T10:28:58.571Z,9.47
2022-10-05T10:32:10.449Z,9.43
2022-10-05T10:34:50.934Z,10.33
2022-10-05T10:37:20.569Z,8.90
2022-10-05T10:40:36.849Z,8.20
2022-10-05T10:43:49.623Z,11.10
2022-10-05T10:46:57.489Z,10.00
2022-10-05T10:50:18.542Z,12.53
2022-10-05T10:53:42.738Z,10.60
2022-10-05T10:56:59.273Z,10.73
2022-10-05T10:59:44.062Z,20.47
2022-10-05T11:02:32.104Z,15.10
2022-10-05T11:05:23.865Z,10.17
2022-10-05T11:08:05.618Z,10.57
2022-10-05T11:11:14.998Z,10.97
2022-10-05T11:14:21.968Z,8.97
2022-10-05T11:17:03.541Z,13.13
2022-10-05T11:20:09.743Z,10.13
2022-10-05T11:22:59.273Z,13.73
2022-10-05T11:26:18.758Z,8.37
2022-10-05T11:28:59.266Z,9.43
2022-10-05T11:32:17.999Z,8.17
2022-10-05T11:35:06.477Z,8.20
2022-10-05T11:38:11.288Z,7.67
2022-10-05T11:41:07.440Z,7.80
2022-10-05T11:44:16.767Z,7.10
2022-10-05T11:47:25.432Z,7.63
2022-10-05T11:50:10.389Z,6.00
2022-10-05T11:52:46.351Z,5.20
2022-10-05T11:55:42.369Z,5.73
2022-10-05T11:58:29.868Z,7.00
2022-10-05T12:01:22.366Z,4.40
2022-10-05T12:04:16.537Z,5.70
2022-10-05T12:07:26.535Z,4.70
2022-10-05T12:10:18.059Z,4.90
2022-10-05T12:13:19.610Z,5.50
2022-10-05T12:16:16.706Z,8.03
2022-10-05T12:19:05.204Z,4.50
2022-10-05T12:21:45.458Z,4.33
2022-10-05T12:25:06.501Z,4.13
2022-10-05T12:27:46.331Z,5.23
2022-10-05T12:30:29.456Z,7.43
2022-10-05T12:33:02.434Z,7.20
2022-10-05T12:35:55.968Z,3.80
2022-10-05T12:38:44.354Z,3.67
2022-10-05T12:41:26.161Z,3.60
2022-10-05T12:45:06.231Z,4.30
2022-10-05T12:48:32.046Z,7.10
2022-10-05T12:51:14.752Z,4.07
2022-10-05T12:54:00.336Z,5.53
2022-10-05T12:56:51.198Z,5.27
2022-10-05T12:59:38.981Z,4.30
2022-10-05T13:02:53.524Z,4.57
2022-10-05T13:05:41.125Z,4.63
2022-10-05T13:08:45.549Z,5.23
2022-10-05T13:11:39.578Z,4.10
2022-10-05T13:14:43.381Z,4.43
2022-10-05T13:18:15.373Z,6.17
2022-10-05T13:20:53.651Z,4.17
2022-10-05T13:23:35.478Z,4.87
2022-10-05T13:26:21.303Z,4.37
2022-10-05T13:29:36.369Z,4.60
2022-10-05T13:32:20.177Z,8.80
2022-10-05T13:35:32.466Z,4.83
2022-10-05T13:38:13.695Z,5.03
2022-10-05T13:41:07.037Z,4.93
2022-10-05T13:43:55.788Z,4.70
2022-10-05T13:47:02.505Z,5.10
2022-10-05T13:49:50.082Z,5.30
2022-10-05T13:52:53.631Z,6.10
2022-10-05T13:56:23.629Z,5.40
2022-10-05T13:59:30.550Z,5.47
2022-10-05T14:02:16.236Z,5.13
2022-10-05T14:04:59.538Z,5.23
2022-10-05T14:07:55.002Z,5.83
2022-10-05T14:10:40.477Z,6.13
2022-10-05T14:13:31.962Z,6.67
2022-10-05T14:16:14.266Z,8.00
2022-10-05T14:19:21.938Z,5.53
2022-10-05T14:22:23.269Z,7.77
2022-10-05T14:25:02.196Z,6.70
2022-10-05T14:27:34.164Z,6.20
2022-10-05T14:30:13.305Z,5.33
2022-10-05T14:32:50.128Z,8.80
2022-10-05T14:35:24.129Z,6.03
2022-10-05T14:38:26.813Z,6.00
2022-10-05T14:41:09.883Z,5.13
2022-10-05T14:43:38.351Z,5.80
2022-10-05T14:46:27.858Z,7.87
2022-10-05T14:49:24.630Z,6.23
2022-10-05T14:51:53.573Z,4.30
2022-10-05T14:54:41.937Z,4.77
2022-10-05T14:57:29.663Z,5.20
2022-10-05T15:00:04.504Z,4.60
2022-10-05T15:02:45.075Z,5.73
2022-10-05T15:05:25.049Z,6.20
2022-10-05T15:07:57.618Z,5.20
2022-10-05T15:10:41.554Z,4.97
2022-10-05T15:13:24.138Z,5.03
2022-10-05T15:16:07.129Z,5.90
2022-10-05T15:18:45.620Z,6.00
2022-10-05T15:21:23.929Z,6.00
2022-10-05T15:24:05.523Z,8.10
2022-10-05T15:26:36.736Z,5.30
2022-10-05T15:29:26.248Z,4.90
2022-10-05T15:32:23.112Z,5.60
2022-10-05T15:35:28.264Z,5.30
2022-10-05T15:38:22.736Z,5.07
2022-10-05T15:41:16.132Z,5.10
2022-10-05T15:44:06.553Z,5.33
2022-10-05T15:47:10.826Z,5.47
2022-10-05T15:50:22.513Z,5.40
2022-10-05T15:53:26.098Z,7.23
2022-10-05T15:56:13.800Z,6.37
2022-10-05T15:59:00.826Z,7.17
2022-10-05T16:01:33.948Z,5.90
2022-10-05T16:04:47.436Z,5.07
2022-10-05T16:07:44.228Z,5.70
2022-10-05T16:10:24.296Z,6.63
2022-10-05T16:13:13.384Z,6.57
2022-10-05T16:15:50.277Z,5.50
2022-10-05T16:18:32.782Z,7.07
2022-10-05T16:21:33.053Z,5.97
2022-10-05T16:24:19.848Z,5.67
2022-10-05T16:27:16.401Z,5.93
2022-10-05T16:30:33.063Z,7.63
2022-10-05T16:33:19.583Z,6.83
2022-10-05T16:36:42.227Z,5.67
2022-10-05T16:39:33.363Z,6.60
2022-10-05T16:42:12.906Z,9.20
2022-10-05T16:44:53.479Z,7.43
2022-10-05T16:47:58.944Z,9.00
2022-10-05T16:51:00.330Z,7.33
2022-10-05T16:53:59.543Z,7.83
2022-10-05T16:56:34.811Z,13.03
2022-10-05T16:59:25.939Z,10.33
2022-10-05T17:02:27.217Z,6.33
2022-10-05T17:05:01.071Z,6.93
2022-10-05T17:07:55.487Z,7.80
2022-10-05T17:10:42.247Z,12.00
2022-10-05T17:13:39.452Z,12.83
2022-10-05T17:16:48.506Z,16.57
2022-10-05T17:19:55.693Z,16.43
2022-10-05T17:22:52.734Z,17.63
2022-10-05T17:25:49.587Z,18.93
2022-10-05T17:28:40.220Z,15.30
2022-10-05T17:31:16.934Z,13.63
2022-10-05T17:33:59.266Z,11.30
2022-10-05T17:36:48.629Z,13.63
2022-10-05T17:39:24.527Z,11.47
2022-10-05T17:41:51.717Z,11.70
2022-10-05T17:44:24.597Z,13.90
2022-10-05T17:47:08.760Z,9.43
2022-10-05T17:50:14.840Z,9.97
2022-10-05T17:53:02.762Z,10.20
2022-10-05T17:55:46.820Z,10.00
2022-10-05T17:58:30.314Z,9.17
2022-10-05T18:00:57.671Z,15.33
2022-10-05T18:03:45.004Z,14.20
2022-10-05T18:06:28.787Z,13.60
2022-10-05T18:09:22.237Z,17.47
2022-10-05T18:12:11.555Z,17.67
2022-10-05T18:15:10.571Z,22.30
2022-10-05T18:17:51.497Z,18.13
2022-10-05T18:20:31.970Z,17.07
2022-10-05T18:23:15.228Z,23.37
2022-10-05T18:25:53.916Z,16.03
2022-10-05T18:29:14.239Z,15.53
2022-10-05T18:32:03.060Z,15.97
2022-10-05T18:34:46.296Z,17.27
2022-10-05T18:37:43.050Z,19.50
2022-10-05T18:40:49.081Z,61.07
2022-10-05T18:43:52.181Z,38.70
2022-10-05T18:47:15.025Z,41.90
2022-10-05T18:49:58.860Z,29.43
2022-10-05T18:53:05.399Z,21.00
2022-10-05T18:55:47.559Z,24.97
2022-10-05T18:58:41.035Z,22.03
2022-10-05T19:01:47.795Z,23.20
2022-10-05T19:05:04.213Z,18.13
2022-10-05T19:07:59.477Z,17.67
2022-10-05T19:10:26.390Z,17.03
2022-10-05T19:13:43.107Z,15.33
2022-10-05T19:16:50.223Z,13.80
2022-10-05T19:19:57.040Z,15.80
2022-10-05T19:23:04.466Z,14.70
2022-10-05T19:25:53.279Z,14.40
2022-10-05T19:28:44.396Z,14.50
2022-10-05T19:31:48.690Z,13.47
2022-10-05T19:34:57.447Z,15.77
2022-10-05T19:37:52.154Z,17.13
2022-10-05T19:40:31.245Z,18.30
2022-10-05T19:43:28.939Z,16.33
2022-10-05T19:46:19.855Z,15.77
2022-10-05T19:48:52.974Z,15.30
2022-10-05T19:51:30.725Z,14.23
2022-10-05T19:54:25.755Z,13.83
2022-10-05T19:56:55.409Z,14.23
2022-10-05T19:59:28.516Z,12.90
2022-10-05T20:01:58.254Z,14.60
2022-10-05T20:04:43.510Z,13.90
2022-10-05T20:07:24.387Z,17.50
2022-10-05T20:10:00.416Z,15.03
2022-10-05T20:12:51.288Z,17.57
2022-10-05T20:15:51.237Z,15.13
2022-10-05T20:19:01.028Z,14.83
2022-10-05T20:21:50.513Z,13.50
2022-10-05T20:24:27.061Z,20.40
2022-10-05T20:27:06.984Z,19.03
2022-10-05T20:29:40.311Z,17.03
2022-10-05T20:32:18.198Z,16.60
2022-10-05T20:34:48.276Z,15.80
2022-10-05T20:37:20.274Z,15.33
2022-10-05T20:39:53.297Z,16.07
2022-10-05T20:42:21.283Z,15.67
2022-10-05T20:44:52.962Z,19.63
2022-10-05T20:47:23.368Z,14.40
2022-10-05T20:49:50.382Z,23.70
2022-10-05T20:52:17.407Z,16.30
2022-10-05T20:54:47.290Z,13.83
2022-10-05T20:57:14.520Z,13.43
2022-10-05T20:59:41.533Z,12.33
2022-10-05T21:02:08.697Z,13.80
2022-10-05T21:04:42.853Z,14.83
2022-10-05T21:07:10.342Z,16.07
2022-10-05T21:09:39.362Z,14.47
2022-10-05T21:12:06.577Z,12.53
2022-10-05T21:14:34.654Z,15.40
2022-10-05T21:17:02.293Z,15.87
2022-10-05T21:19:29.848Z,20.27
2022-10-05T21:22:02.778Z,23.87
2022-10-05T21:24:29.732Z,21.07
2022-10-05T21:26:57.743Z,17.20
2022-10-05T21:29:24.858Z,25.60
2022-10-05T21:31:51.982Z,16.47
2022-10-05T21:34:19.043Z,14.80
2022-10-05T21:36:46.003Z,17.47
2022-10-05T21:39:12.979Z,20.73
2022-10-05T21:41:39.982Z,23.17
2022-10-05T21:44:07.094Z,14.30
2022-10-05T21:46:37.078Z,19.77
2022-10-05T21:49:06.251Z,17.30
2022-10-05T21:51:35.438Z,14.23
2022-10-05T21:54:18.330Z,14.73
2022-10-05T21:56:51.694Z,12.63
2022-10-05T21:59:22.928Z,15.60
2022-10-05T22:01:49.979Z,14.40
2022-10-05T22:04:17.222Z,14.50
2022-10-05T22:06:44.325Z,13.37
2022-10-05T22:09:12.453Z,13.70
2022-10-05T22:11:39.482Z,17.00
2022-10-05T22:14:06.577Z,19.63
2022-10-05T22:16:38.304Z,15.90
2022-10-05T22:19:11.033Z,12.87
2022-10-05T22:21:41.821Z,16.27
2022-10-05T22:24:11.792Z,15.27
2022-10-05T22:26:41.016Z,20.40
2022-10-05T22:29:09.009Z,14.80
2022-10-05T22:31:36.136Z,19.00
2022-10-05T22:34:03.099Z,17.97
2022-10-05T22:36:30.102Z,16.37
2022-10-05T22:38:57.060Z,18.40
2022-10-05T22:41:24.079Z,15.57
2022-10-05T22:43:52.115Z,15.77
2022-10-05T22:46:20.469Z,16.43
2022-10-05T22:48:48.122Z,15.67
2022-10-05T22:51:16.303Z,15.73
2022-10-05T22:53:43.434Z,15.07
2022-10-05T22:56:13.252Z,15.43
2022-10-05T22:58:42.081Z,15.17
2022-10-05T23:01:15.576Z,19.27
2022-10-05T23:03:43.591Z,19.67
2022-10-05T23:06:18.593Z,17.27
2022-10-05T23:08:47.148Z,21.50
2022-10-05T23:11:26.888Z,13.90
2022-10-05T23:13:57.040Z,17.70
2022-10-05T23:16:27.779Z,14.93
2022-10-05T23:18:56.222Z,13.97
2022-10-05T23:21:25.923Z,14.70
2022-10-05T23:23:53.301Z,13.30
2022-10-05T23:26:23.446Z,14.93
2022-10-05T23:28:50.633Z,13.30
2022-10-05T23:31:26.471Z,12.27
2022-10-05T23:33:54.057Z,11.43
2022-10-05T23:36:27.730Z,11.70
2022-10-05T23:38:54.844Z,13.70
2022-10-05T23:41:21.962Z,12.43
2022-10-05T23:43:49.342Z,13.00
2022-10-05T23:46:18.242Z,10.10
2022-10-05T23:48:45.284Z,11.80
2022-10-05T23:51:15.682Z,11.43
2022-10-05T23:53:42.643Z,10.70
2022-10-05T23:56:09.881Z,11.50
2022-10-05T23:58:36.863Z,11.87
